Wetterdaten: aktuell Mittwoch, 07.06.2023 20:35
Datum Zeit Temp. A. Feuchte A. Luftdruck Regen Wind Richtung Richtung Taupunkt Windchill Windben
07.06.2023 20:35 19,7 C 72 % 1015,0 hPa 0,0 l/m 0,0 km/h (0 Bft) O-NO 76 14,5 C 19,7 C 1,6 km/h (1 Bft)
07.06.2023 20:30 19,8 C 72 % 1014,9 hPa 0,0 l/m 0,0 km/h (0 Bft) O-NO 76 14,6 C 19,8 C 0,0 km/h (0 Bft)
07.06.2023 20:25 19,9 C 72 % 1014,9 hPa 0,0 l/m 0,0 km/h (0 Bft) O-NO 76 14,7 C 19,9 C 0,0 km/h (0 Bft)
07.06.2023 20:20 20,0 C 71 % 1014,9 hPa 0,0 l/m 0,0 km/h (0 Bft) O-NO 78 14,6 C 20,0 C 0,0 km/h (0 Bft)
07.06.2023 20:15 20,1 C 71 % 1014,9 hPa 0,0 l/m 0,0 km/h (0 Bft) O 79 14,7 C 20,1 C 1,6 km/h (1 Bft)
07.06.2023 20:10 20,2 C 71 % 1015,0 hPa 0,0 l/m 0,3 km/h (0 Bft) O 80 14,8 C 20,2 C 6,4 km/h (2 Bft)
07.06.2023 20:05 20,3 C 71 % 1015,0 hPa 0,0 l/m 0,1 km/h (0 Bft) O-NO 57 14,9 C 20,3 C 4,8 km/h (1 Bft)
07.06.2023 20:00 20,3 C 70 % 1015,0 hPa 0,0 l/m 0,5 km/h (0 Bft) NO 54 14,6 C 20,3 C 4,8 km/h (1 Bft)
07.06.2023 19:55 20,4 C 70 % 1015,1 hPa 0,0 l/m 0,4 km/h (0 Bft) NO 56 14,7 C 20,4 C 6,4 km/h (2 Bft)
07.06.2023 19:50 20,6 C 69 % 1015,0 hPa 0,0 l/m 0,8 km/h (0 Bft) N-NO 28 14,7 C 20,6 C 8,0 km/h (2 Bft)
07.06.2023 19:45 20,7 C 69 % 1015,0 hPa 0,0 l/m 1,0 km/h (0 Bft) O-NO 65 14,8 C 20,7 C 8,0 km/h (2 Bft)
07.06.2023 19:40 20,7 C 69 % 1015,0 hPa 0,0 l/m 0,7 km/h (0 Bft) NO 50 14,8 C 20,7 C 9,7 km/h (2 Bft)
07.06.2023 19:35 20,8 C 68 % 1014,9 hPa 0,0 l/m 1,0 km/h (0 Bft) O-NO 60 14,7 C 20,8 C 14,5 km/h (3 Bft)
07.06.2023 19:30 20,8 C 69 % 1015,0 hPa 0,0 l/m 0,0 km/h (0 Bft) O-NO 64 14,9 C 20,8 C 1,6 km/h (1 Bft)
07.06.2023 19:25 20,9 C 68 % 1015,0 hPa 0,0 l/m 0,7 km/h (0 Bft) O-NO 66 14,8 C 20,9 C 6,4 km/h (2 Bft)
07.06.2023 19:20 21,0 C 67 % 1015,0 hPa 0,0 l/m 1,2 km/h (1 Bft) O-NO 71 14,6 C 21,0 C 9,7 km/h (2 Bft)
07.06.2023 19:15 21,1 C 67 % 1014,9 hPa 0,0 l/m 0,9 km/h (0 Bft) NO 51 14,7 C 21,1 C 9,7 km/h (2 Bft)
07.06.2023 19:10 21,2 C 67 % 1014,9 hPa 0,0 l/m 0,3 km/h (0 Bft) O-NO 63 14,8 C 21,2 C 6,4 km/h (2 Bft)
07.06.2023 19:05 21,2 C 66 % 1014,9 hPa 0,0 l/m 0,5 km/h (0 Bft) O-NO 61 14,6 C 21,2 C 6,4 km/h (2 Bft)
07.06.2023 19:00 21,2 C 66 % 1014,8 hPa 0,0 l/m 1,1 km/h (1 Bft) O-SO 104 14,6 C 21,2 C 9,7 km/h (2 Bft)
07.06.2023 18:55 21,2 C 65 % 1014,8 hPa 0,0 l/m 1,0 km/h (0 Bft) O-NO 73 14,4 C 21,2 C 8,0 km/h (2 Bft)
07.06.2023 18:50 21,2 C 65 % 1014,8 hPa 0,0 l/m 1,3 km/h (1 Bft) O-NO 57 14,4 C 21,2 C 11,3 km/h (2 Bft)
07.06.2023 18:45 21,3 C 65 % 1014,8 hPa 0,0 l/m 1,0 km/h (0 Bft) NO 55 14,4 C 21,3 C 8,0 km/h (2 Bft)
07.06.2023 18:40 21,2 C 65 % 1014,8 hPa 0,0 l/m 1,6 km/h (1 Bft) N-NO 19 14,4 C 21,2 C 12,9 km/h (3 Bft)
07.06.2023 18:35 21,2 C 66 % 1014,8 hPa 0,0 l/m 0,6 km/h (0 Bft) NO 50 14,6 C 21,2 C 9,7 km/h (2 Bft)
07.06.2023 18:30 21,2 C 67 % 1014,8 hPa 0,0 l/m 0,5 km/h (0 Bft) O-NO 67 14,8 C 21,2 C 6,4 km/h (2 Bft)
07.06.2023 18:25 21,1 C 67 % 1014,9 hPa 0,0 l/m 0,8 km/h (0 Bft) NO 48 14,7 C 21,1 C 9,7 km/h (2 Bft)
07.06.2023 18:20 21,0 C 68 % 1015,0 hPa 0,0 l/m 1,0 km/h (0 Bft) O 101 14,9 C 21,0 C 9,7 km/h (2 Bft)
07.06.2023 18:15 20,9 C 70 % 1014,9 hPa 0,0 l/m 0,4 km/h (0 Bft) NO 38 15,2 C 20,9 C 6,4 km/h (2 Bft)
07.06.2023 18:10 20,9 C 71 % 1015,0 hPa 0,0 l/m 0,0 km/h (0 Bft) N-NO 28 15,4 C 20,9 C 0,0 km/h (0 Bft)
07.06.2023 18:05 20,8 C 71 % 1015,0 hPa 0,0 l/m 0,1 km/h (0 Bft) N-NO 27 15,3 C 20,8 C 3,2 km/h (1 Bft)
07.06.2023 18:00 20,8 C 71 % 1015,1 hPa 0,0 l/m 0,6 km/h (0 Bft) N 5 15,3 C 20,8 C 8,0 km/h (2 Bft)
07.06.2023 17:55 20,8 C 71 % 1015,1 hPa 0,0 l/m 0,0 km/h (0 Bft) N-NO 17 15,3 C 20,8 C 1,6 km/h (1 Bft)
07.06.2023 17:50 20,8 C 71 % 1015,1 hPa 0,0 l/m 0,4 km/h (0 Bft) N-NO 17 15,3 C 20,8 C 4,8 km/h (1 Bft)
07.06.2023 17:45 20,8 C 71 % 1015,1 hPa 0,0 l/m 0,7 km/h (0 Bft) O-NO 66 15,3 C 20,8 C 8,0 km/h (2 Bft)
07.06.2023 17:40 20,7 C 72 % 1015,1 hPa 0,0 l/m 0,3 km/h (0 Bft) N-NO 33 15,5 C 20,7 C 4,8 km/h (1 Bft)
07.06.2023 17:35 20,4 C 73 % 1015,1 hPa 0,0 l/m 0,5 km/h (0 Bft) NO 46 15,4 C 20,4 C 4,8 km/h (1 Bft)
07.06.2023 17:30 20,3 C 74 % 1015,0 hPa 0,0 l/m 0,1 km/h (0 Bft) O-NO 70 15,5 C 20,3 C 4,8 km/h (1 Bft)
07.06.2023 17:25 20,1 C 74 % 1015,1 hPa 0,0 l/m 1,6 km/h (1 Bft) NO 54 15,3 C 20,1 C 12,9 km/h (3 Bft)
07.06.2023 17:20 20,1 C 74 % 1015,1 hPa 0,0 l/m 0,4 km/h (0 Bft) NO 42 15,3 C 20,1 C 9,7 km/h (2 Bft)
07.06.2023 17:15 20,1 C 74 % 1015,3 hPa 0,0 l/m 1,0 km/h (0 Bft) O-NO 76 15,3 C 20,1 C 14,5 km/h (3 Bft)
07.06.2023 17:10 20,1 C 75 % 1015,3 hPa 0,0 l/m 0,8 km/h (0 Bft) O-NO 60 15,5 C 20,1 C 9,7 km/h (2 Bft)
07.06.2023 17:05 20,0 C 75 % 1015,4 hPa 0,0 l/m 0,8 km/h (0 Bft) O-NO 57 15,4 C 20,0 C 8,0 km/h (2 Bft)
07.06.2023 17:00 19,8 C 75 % 1015,5 hPa 0,0 l/m 0,6 km/h (0 Bft) O-NO 63 15,2 C 19,8 C 6,4 km/h (2 Bft)
07.06.2023 16:55 19,6 C 74 % 1015,5 hPa 0,0 l/m 0,9 km/h (0 Bft) NO 46 14,8 C 19,6 C 6,4 km/h (2 Bft)
07.06.2023 16:50 19,3 C 74 % 1015,5 hPa 0,0 l/m 1,0 km/h (0 Bft) NO 56 14,5 C 19,3 C 9,7 km/h (2 Bft)
07.06.2023 16:45 19,1 C 74 % 1015,5 hPa 0,0 l/m 1,2 km/h (1 Bft) NO 53 14,4 C 19,1 C 11,3 km/h (2 Bft)
07.06.2023 16:40 18,8 C 72 % 1015,5 hPa 0,0 l/m 1,2 km/h (1 Bft) O-NO 59 13,6 C 18,8 C 8,0 km/h (2 Bft)
07.06.2023 16:35 18,7 C 72 % 1015,6 hPa 0,0 l/m 0,9 km/h (0 Bft) O-NO 69 13,5 C 18,7 C 9,7 km/h (2 Bft)
07.06.2023 16:30 19,0 C 72 % 1015,6 hPa 0,0 l/m 0,1 km/h (0 Bft) O-NO 65 13,8 C 19,0 C 4,8 km/h (1 Bft)
07.06.2023 16:25 19,4 C 74 % 1015,7 hPa 0,0 l/m 1,8 km/h (1 Bft) O-NO 75 14,6 C 19,4 C 8,0 km/h (2 Bft)
07.06.2023 16:20 19,7 C 75 % 1015,7 hPa 0,2 l/m 2,7 km/h (1 Bft) O-NO 77 15,1 C 19,7 C 9,7 km/h (2 Bft)
07.06.2023 16:15 19,9 C 75 % 1015,7 hPa 0,4 l/m 1,8 km/h (1 Bft) O-NO 69 15,3 C 19,9 C 9,7 km/h (2 Bft)
07.06.2023 16:10 20,0 C 75 % 1015,7 hPa 0,2 l/m 1,2 km/h (1 Bft) O-NO 57 15,4 C 20,0 C 8,0 km/h (2 Bft)
07.06.2023 16:05 20,1 C 75 % 1015,8 hPa 0,0 l/m 0,3 km/h (0 Bft) O-NO 71 15,5 C 20,1 C 4,8 km/h (1 Bft)
07.06.2023 16:00 20,2 C 74 % 1015,9 hPa 0,0 l/m 0,0 km/h (0 Bft) NO 51 15,4 C 20,2 C 1,6 km/h (1 Bft)
07.06.2023 15:55 20,3 C 74 % 1016,0 hPa 0,0 l/m 0,4 km/h (0 Bft) NO 48 15,5 C 20,3 C 6,4 km/h (2 Bft)
07.06.2023 15:50 20,8 C 72 % 1015,9 hPa 0,0 l/m 3,8 km/h (1 Bft) O-NO 71 15,6 C 20,8 C 16,1 km/h (3 Bft)
07.06.2023 15:45 21,5 C 68 % 1015,9 hPa 0,0 l/m 4,5 km/h (1 Bft) N-NO 29 15,3 C 21,5 C 17,7 km/h (3 Bft)
07.06.2023 15:40 22,0 C 64 % 1015,8 hPa 0,0 l/m 2,5 km/h (1 Bft) NO 43 14,9 C 22,0 C 14,5 km/h (3 Bft)
07.06.2023 15:35 22,5 C 62 % 1015,7 hPa 0,0 l/m 3,0 km/h (1 Bft) O-NO 69 14,8 C 22,5 C 14,5 km/h (3 Bft)
07.06.2023 15:30 23,2 C 61 % 1015,8 hPa 0,0 l/m 5,5 km/h (1 Bft) O 89 15,3 C 23,2 C 14,5 km/h (3 Bft)
07.06.2023 15:25 23,8 C 58 % 1015,8 hPa 0,0 l/m 2,4 km/h (1 Bft) O-NO 59 15,0 C 23,8 C 19,3 km/h (3 Bft)
07.06.2023 15:20 24,3 C 55 % 1015,6 hPa 0,0 l/m 1,8 km/h (1 Bft) N-NO 30 14,7 C 24,3 C 12,9 km/h (3 Bft)
07.06.2023 15:15 24,7 C 55 % 1015,5 hPa 0,0 l/m 2,0 km/h (1 Bft) O 84 15,0 C 24,7 C 8,0 km/h (2 Bft)
07.06.2023 15:10 24,5 C 52 % 1015,5 hPa 0,0 l/m 0,1 km/h (0 Bft) O-SO 119 14,0 C 24,5 C 3,2 km/h (1 Bft)
07.06.2023 15:05 24,4 C 52 % 1015,5 hPa 0,0 l/m 0,2 km/h (0 Bft) O-SO 121 13,9 C 24,4 C 3,2 km/h (1 Bft)
07.06.2023 15:00 24,2 C 52 % 1015,6 hPa 0,0 l/m 0,3 km/h (0 Bft) O-SO 122 13,7 C 24,2 C 4,8 km/h (1 Bft)
07.06.2023 14:55 24,1 C 52 % 1015,6 hPa 0,0 l/m 0,3 km/h (0 Bft) S 189 13,6 C 24,1 C 4,8 km/h (1 Bft)
07.06.2023 14:50 24,0 C 52 % 1015,6 hPa 0,0 l/m 0,5 km/h (0 Bft) S 190 13,5 C 24,0 C 6,4 km/h (2 Bft)
07.06.2023 14:45 23,9 C 53 % 1015,7 hPa 0,0 l/m 0,1 km/h (0 Bft) S 180 13,7 C 23,9 C 3,2 km/h (1 Bft)
07.06.2023 14:40 23,5 C 55 % 1015,7 hPa 0,0 l/m 0,0 km/h (0 Bft) S-SW 201 13,9 C 23,5 C 1,6 km/h (1 Bft)
07.06.2023 14:35 23,2 C 55 % 1015,8 hPa 0,0 l/m 0,0 km/h (0 Bft) S-SW 209 13,6 C 23,2 C 0,0 km/h (0 Bft)
07.06.2023 14:30 22,9 C 55 % 1015,8 hPa 0,0 l/m 0,0 km/h (0 Bft) W-SW 239 13,4 C 22,9 C 0,0 km/h (0 Bft)
07.06.2023 14:25 22,7 C 57 % 1015,9 hPa 0,0 l/m 0,2 km/h (0 Bft) W-SW 240 13,7 C 22,7 C 3,2 km/h (1 Bft)
07.06.2023 14:20 22,6 C 59 % 1015,9 hPa 0,0 l/m 0,1 km/h (0 Bft) W-SW 237 14,2 C 22,6 C 3,2 km/h (1 Bft)
07.06.2023 14:15 22,4 C 58 % 1016,0 hPa 0,0 l/m 0,0 km/h (0 Bft) SW 229 13,7 C 22,4 C 1,6 km/h (1 Bft)
07.06.2023 14:10 22,3 C 61 % 1016,1 hPa 0,0 l/m 0,0 km/h (0 Bft) SO 146 14,4 C 22,3 C 0,0 km/h (0 Bft)
07.06.2023 14:05 22,3 C 60 % 1016,1 hPa 0,0 l/m 0,1 km/h (0 Bft) SO 146 14,2 C 22,3 C 1,6 km/h (1 Bft)
07.06.2023 14:00 22,3 C 60 % 1016,1 hPa 0,0 l/m 0,0 km/h (0 Bft) SO 134 14,2 C 22,3 C 0,0 km/h (0 Bft)
07.06.2023 13:55 22,3 C 60 % 1016,2 hPa 0,0 l/m 0,0 km/h (0 Bft) SO 132 14,2 C 22,3 C 0,0 km/h (0 Bft)
07.06.2023 13:50 22,3 C 58 % 1016,3 hPa 0,0 l/m 0,0 km/h (0 Bft) O-SO 118 13,6 C 22,3 C 1,6 km/h (1 Bft)
07.06.2023 13:45 22,3 C 59 % 1016,4 hPa 0,0 l/m 0,0 km/h (0 Bft) O-SO 115 13,9 C 22,3 C 0,0 km/h (0 Bft)
07.06.2023 13:40 22,3 C 59 % 1016,4 hPa 0,0 l/m 0,0 km/h (0 Bft) O-SO 117 13,9 C 22,3 C 0,0 km/h (0 Bft)
07.06.2023 13:35 22,3 C 60 % 1016,5 hPa 0,0 l/m 0,0 km/h (0 Bft) O-SO 118 14,2 C 22,3 C 0,0 km/h (0 Bft)
07.06.2023 13:30 22,3 C 60 % 1016,5 hPa 0,0 l/m 0,0 km/h (0 Bft) O-SO 117 14,2 C 22,3 C 0,0 km/h (0 Bft)
07.06.2023 13:25 22,2 C 58 % 1016,5 hPa 0,0 l/m 2,1 km/h (1 Bft) O-SO 117 13,5 C 22,2 C 11,3 km/h (2 Bft)
07.06.2023 13:20 22,3 C 60 % 1016,5 hPa 0,0 l/m 0,0 km/h (0 Bft) O 94 14,2 C 22,3 C 1,6 km/h (1 Bft)
07.06.2023 13:15 22,2 C 59 % 1016,5 hPa 0,0 l/m 0,0 km/h (0 Bft) O 98 13,8 C 22,2 C 0,0 km/h (0 Bft)
07.06.2023 13:10 22,3 C 59 % 1016,6 hPa 0,0 l/m 0,0 km/h (0 Bft) O 98 13,9 C 22,3 C 0,0 km/h (0 Bft)
07.06.2023 13:05 22,3 C 61 % 1016,6 hPa 0,0 l/m 0,0 km/h (0 Bft) O 97 14,4 C 22,3 C 0,0 km/h (0 Bft)
07.06.2023 13:00 22,3 C 59 % 1016,7 hPa 0,0 l/m 0,2 km/h (0 Bft) O 98 13,9 C 22,3 C 6,4 km/h (2 Bft)
07.06.2023 12:55 22,4 C 59 % 1016,7 hPa 0,0 l/m 0,0 km/h (0 Bft) O 85 14,0 C 22,4 C 0,0 km/h (0 Bft)
07.06.2023 12:50 22,6 C 58 % 1016,8 hPa 0,0 l/m 1,3 km/h (1 Bft) O 85 13,9 C 22,6 C 9,7 km/h (2 Bft)
07.06.2023 12:45 22,8 C 59 % 1016,8 hPa 0,0 l/m 0,0 km/h (0 Bft) N-NO 30 14,4 C 22,8 C 1,6 km/h (1 Bft)
07.06.2023 12:40 22,7 C 59 % 1016,9 hPa 0,0 l/m 0,0 km/h (0 Bft) N-NO 29 14,3 C 22,7 C 0,0 km/h (0 Bft)
07.06.2023 12:35 22,7 C 61 % 1016,9 hPa 0,0 l/m 0,0 km/h (0 Bft) N-NO 23 14,8 C 22,7 C 1,6 km/h (1 Bft)
07.06.2023 12:30 22,7 C 61 % 1016,9 hPa 0,0 l/m 0,4 km/h (0 Bft) N-NO 15 14,8 C 22,7 C 8,0 km/h (2 Bft)
07.06.2023 12:25 22,6 C 60 % 1016,9 hPa 0,0 l/m 0,4 km/h (0 Bft) O-NO 68 14,4 C 22,6 C 6,4 km/h (2 Bft)
07.06.2023 12:20 22,6 C 60 % 1016,9 hPa 0,0 l/m 1,3 km/h (1 Bft) O 97 14,4 C 22,6 C 11,3 km/h (2 Bft)
07.06.2023 12:15 22,4 C 61 % 1017,0 hPa 0,0 l/m 1,1 km/h (1 Bft) NO 38 14,5 C 22,4 C 9,7 km/h (2 Bft)
07.06.2023 12:10 22,1 C 63 % 1017,0 hPa 0,0 l/m 1,2 km/h (1 Bft) SO 127 14,7 C 22,1 C 8,0 km/h (2 Bft)
07.06.2023 12:05 21,8 C 63 % 1017,1 hPa 0,0 l/m 0,0 km/h (0 Bft) O 88 14,4 C 21,8 C 3,2 km/h (1 Bft)
07.06.2023 12:00 21,5 C 64 % 1017,1 hPa 0,0 l/m 0,5 km/h (0 Bft) SO 124 14,4 C 21,5 C 6,4 km/h (2 Bft)
07.06.2023 11:55 21,3 C 66 % 1017,2 hPa 0,0 l/m 1,8 km/h (1 Bft) O-SO 120 14,7 C 21,3 C 11,3 km/h (2 Bft)
07.06.2023 11:50 21,3 C 65 % 1017,1 hPa 0,0 l/m 1,1 km/h (1 Bft) O-SO 106 14,4 C 21,3 C 9,7 km/h (2 Bft)
07.06.2023 11:45 21,3 C 67 % 1017,1 hPa 0,0 l/m 0,8 km/h (0 Bft) O 85 14,9 C 21,3 C 11,3 km/h (2 Bft)
07.06.2023 11:40 21,2 C 65 % 1017,1 hPa 0,0 l/m 1,0 km/h (0 Bft) O-SO 117 14,4 C 21,2 C 9,7 km/h (2 Bft)
07.06.2023 11:35 21,3 C 65 % 1017,1 hPa 0,0 l/m 4,9 km/h (1 Bft) O-SO 122 14,4 C 21,3 C 16,1 km/h (3 Bft)
07.06.2023 11:30 21,3 C 65 % 1017,2 hPa 0,0 l/m 0,9 km/h (0 Bft) O-NO 63 14,4 C 21,3 C 8,0 km/h (2 Bft)
07.06.2023 11:25 21,3 C 66 % 1017,2 hPa 0,0 l/m 1,6 km/h (1 Bft) O 101 14,7 C 21,3 C 11,3 km/h (2 Bft)
07.06.2023 11:20 21,2 C 67 % 1017,2 hPa 0,0 l/m 0,0 km/h (0 Bft) O-SO 110 14,8 C 21,2 C 0,0 km/h (0 Bft)
07.06.2023 11:15 21,2 C 66 % 1017,2 hPa 0,0 l/m 0,3 km/h (0 Bft) O-SO 111 14,6 C 21,2 C 4,8 km/h (1 Bft)
07.06.2023 11:10 21,1 C 67 % 1017,1 hPa 0,0 l/m 1,7 km/h (1 Bft) O-SO 123 14,7 C 21,1 C 9,7 km/h (2 Bft)
07.06.2023 11:05 20,9 C 66 % 1017,1 hPa 0,0 l/m 3,6 km/h (1 Bft) O-SO 119 14,3 C 20,9 C 12,9 km/h (3 Bft)
07.06.2023 11:00 20,7 C 68 % 1017,1 hPa 0,0 l/m 2,7 km/h (1 Bft) O-SO 104 14,6 C 20,7 C 11,3 km/h (2 Bft)
07.06.2023 10:55 20,5 C 68 % 1017,1 hPa 0,0 l/m 1,8 km/h (1 Bft) O-SO 119 14,4 C 20,5 C 14,5 km/h (3 Bft)
07.06.2023 10:50 20,7 C 68 % 1017,2 hPa 0,0 l/m 0,0 km/h (0 Bft) O 96 14,6 C 20,7 C 0,0 km/h (0 Bft)
07.06.2023 10:45 20,8 C 67 % 1017,1 hPa 0,0 l/m 0,7 km/h (0 Bft) O 97 14,4 C 20,8 C 6,4 km/h (2 Bft)
07.06.2023 10:40 20,8 C 67 % 1017,2 hPa 0,0 l/m 0,7 km/h (0 Bft) O-SO 115 14,4 C 20,8 C 6,4 km/h (2 Bft)
07.06.2023 10:35 20,9 C 67 % 1017,1 hPa 0,0 l/m 2,2 km/h (1 Bft) O-SO 112 14,5 C 20,9 C 11,3 km/h (2 Bft)
07.06.2023 10:30 20,9 C 68 % 1017,1 hPa 0,0 l/m 0,2 km/h (0 Bft) O-SO 107 14,8 C 20,9 C 4,8 km/h (1 Bft)
07.06.2023 10:25 20,8 C 68 % 1017,1 hPa 0,0 l/m 0,4 km/h (0 Bft) O-SO 104 14,7 C 20,8 C 4,8 km/h (1 Bft)
07.06.2023 10:20 20,7 C 69 % 1017,1 hPa 0,0 l/m 0,9 km/h (0 Bft) O 101 14,8 C 20,7 C 6,4 km/h (2 Bft)
07.06.2023 10:15 20,6 C 69 % 1017,1 hPa 0,0 l/m 1,8 km/h (1 Bft) O-SO 123 14,7 C 20,6 C 6,4 km/h (2 Bft)
07.06.2023 10:10 20,1 C 71 % 1017,1 hPa 0,0 l/m 0,9 km/h (0 Bft) O-SO 123 14,7 C 20,1 C 9,7 km/h (2 Bft)
07.06.2023 10:05 19,7 C 72 % 1017,2 hPa 0,0 l/m 0,0 km/h (0 Bft) O-SO 108 14,5 C 19,7 C 0,0 km/h (0 Bft)
07.06.2023 10:00 19,7 C 71 % 1017,3 hPa 0,0 l/m 0,1 km/h (0 Bft) O-SO 106 14,3 C 19,7 C 1,6 km/h (1 Bft)
07.06.2023 09:55 19,8 C 71 % 1017,2 hPa 0,0 l/m 0,8 km/h (0 Bft) O-SO 106 14,4 C 19,8 C 9,7 km/h (2 Bft)
07.06.2023 09:50 19,9 C 71 % 1017,2 hPa 0,0 l/m 0,1 km/h (0 Bft) O 92 14,5 C 19,9 C 3,2 km/h (1 Bft)
07.06.2023 09:45 20,0 C 71 % 1017,2 hPa 0,0 l/m 0,5 km/h (0 Bft) O 92 14,6 C 20,0 C 6,4 km/h (2 Bft)
07.06.2023 09:40 19,9 C 71 % 1017,3 hPa 0,0 l/m 0,2 km/h (0 Bft) N-NO 28 14,5 C 19,9 C 6,4 km/h (2 Bft)
07.06.2023 09:35 19,8 C 73 % 1017,2 hPa 0,0 l/m 0,6 km/h (0 Bft) O-SO 108 14,8 C 19,8 C 9,7 km/h (2 Bft)
07.06.2023 09:30 19,6 C 73 % 1017,2 hPa 0,0 l/m 0,0 km/h (0 Bft) O 84 14,6 C 19,6 C 0,0 km/h (0 Bft)
07.06.2023 09:25 19,5 C 74 % 1017,2 hPa 0,0 l/m 0,0 km/h (0 Bft) O 81 14,7 C 19,5 C 1,6 km/h (1 Bft)
07.06.2023 09:20 18,8 C 74 % 1017,2 hPa 0,0 l/m 0,2 km/h (0 Bft) O 80 14,1 C 18,8 C 4,8 km/h (1 Bft)
07.06.2023 09:15 18,3 C 75 % 1017,3 hPa 0,0 l/m 0,1 km/h (0 Bft) O-NO 75 13,8 C 18,3 C 4,8 km/h (1 Bft)
07.06.2023 09:10 17,9 C 75 % 1017,3 hPa 0,0 l/m 0,1 km/h (0 Bft) O-NO 65 13,4 C 17,9 C 3,2 km/h (1 Bft)
07.06.2023 09:05 17,7 C 75 % 1017,3 hPa 0,0 l/m 0,0 km/h (0 Bft) O-NO 77 13,2 C 17,7 C 1,6 km/h (1 Bft)
07.06.2023 09:00 17,2 C 75 % 1017,3 hPa 0,0 l/m 0,2 km/h (0 Bft) O-NO 76 12,7 C 17,2 C 4,8 km/h (1 Bft)
07.06.2023 08:55 16,7 C 74 % 1017,3 hPa 0,0 l/m 0,0 km/h (0 Bft) N-NO 24 12,0 C 16,7 C 0,0 km/h (0 Bft)
07.06.2023 08:50 16,6 C 74 % 1017,2 hPa 0,0 l/m 0,0 km/h (0 Bft) N-NO 23 11,9 C 16,6 C 0,0 km/h (0 Bft)
07.06.2023 08:45 16,3 C 72 % 1017,2 hPa 0,0 l/m 0,0 km/h (0 Bft) N-NO 22 11,2 C 16,3 C 0,0 km/h (0 Bft)
07.06.2023 08:40 16,1 C 72 % 1017,3 hPa 0,0 l/m 0,0 km/h (0 Bft) N-NO 22 11,0 C 16,1 C 0,0 km/h (0 Bft)
07.06.2023 08:35 15,8 C 68 % 1017,3 hPa 0,0 l/m 0,0 km/h (0 Bft) N-NO 22 9,9 C 15,8 C 0,0 km/h (0 Bft)
07.06.2023 08:30 15,6 C 68 % 1017,3 hPa 0,0 l/m 0,0 km/h (0 Bft) N-NO 21 9,7 C 15,6 C 0,0 km/h (0 Bft)
07.06.2023 08:25 15,4 C 66 % 1017,3 hPa 0,0 l/m 0,0 km/h (0 Bft) N-NO 22 9,1 C 15,4 C 0,0 km/h (0 Bft)
07.06.2023 08:20 15,3 C 65 % 1017,3 hPa 0,0 l/m 0,0 km/h (0 Bft) N-NO 21 8,8 C 15,3 C 0,0 km/h (0 Bft)
07.06.2023 08:15 15,3 C 66 % 1017,3 hPa 0,0 l/m 0,0 km/h (0 Bft) N-NO 20 9,0 C 15,3 C 0,0 km/h (0 Bft)
07.06.2023 08:10 15,2 C 66 % 1017,2 hPa 0,0 l/m 0,0 km/h (0 Bft) N-NO 20 8,9 C 15,2 C 0,0 km/h (0 Bft)
07.06.2023 08:05 15,1 C 64 % 1017,3 hPa 0,0 l/m 0,0 km/h (0 Bft) N-NO 20 8,3 C 15,1 C 0,0 km/h (0 Bft)
07.06.2023 08:00 15,0 C 60 % 1017,3 hPa 0,0 l/m 0,0 km/h (0 Bft) N-NO 20 7,3 C 15,0 C 0,0 km/h (0 Bft)
07.06.2023 07:55 15,0 C 59 % 1017,2 hPa 0,0 l/m 0,0 km/h (0 Bft) N-NO 20 7,1 C 15,0 C 0,0 km/h (0 Bft)
07.06.2023 07:50 14,9 C 54 % 1017,3 hPa 0,0 l/m 0,0 km/h (0 Bft) N-NO 20 5,7 C 14,9 C 0,0 km/h (0 Bft)
07.06.2023 07:45 14,8 C 46 % 1017,3 hPa 0,0 l/m 0,0 km/h (0 Bft) N-NO 21 3,3 C 14,8 C 0,0 km/h (0 Bft)
07.06.2023 07:40 14,8 C 33 % 1017,3 hPa 0,0 l/m 0,0 km/h (0 Bft) N-NO 20 -1,3 C 14,8 C 0,0 km/h (0 Bft)
07.06.2023 07:35 14,8 C 18 % 1017,2 hPa 0,0 l/m 0,0 km/h (0 Bft) N-NO 19 -9,3 C 14,8 C 0,0 km/h (0 Bft)
07.06.2023 07:30 14,8 C 10 % 1017,3 hPa 0,0 l/m 0,0 km/h (0 Bft) N-NO 19 -16,5 C 14,8 C 0,0 km/h (0 Bft)
07.06.2023 07:25 14,6 C 4 % 1017,2 hPa 0,0 l/m 0,0 km/h (0 Bft) N-NO 17 -27,0 C 14,6 C 0,0 km/h (0 Bft)
07.06.2023 07:20 14,4 C 2 % 1017,2 hPa 0,0 l/m 0,0 km/h (0 Bft) N-NO 19 -34,3 C 14,4 C 1,6 km/h (1 Bft)
07.06.2023 07:15 14,2 C 1 % 1017,1 hPa 0,0 l/m 0,0 km/h (0 Bft) N-NO 16 -41,2 C 14,2 C 0,0 km/h (0 Bft)
07.06.2023 07:10 14,1 C 3 % 1017,1 hPa 0,0 l/m 0,0 km/h (0 Bft) N-NO 16 -30,4 C 14,1 C 0,0 km/h (0 Bft)
07.06.2023 07:05 13,9 C 6 % 1017,1 hPa 0,0 l/m 0,0 km/h (0 Bft) N-NO 16 -23,0 C 13,9 C 0,0 km/h (0 Bft)
07.06.2023 07:00 13,8 C 5 % 1017,1 hPa 0,0 l/m 0,0 km/h (0 Bft) N-NO 16 -25,1 C 13,8 C 0,0 km/h (0 Bft)
07.06.2023 06:55 13,8 C 4 % 1017,1 hPa 0,0 l/m 0,0 km/h (0 Bft) N-NO 16 -27,5 C 13,8 C 0,0 km/h (0 Bft)
07.06.2023 06:50 13,8 C 5 % 1017,1 hPa 0,0 l/m 0,0 km/h (0 Bft) N-NO 16 -25,1 C 13,8 C 0,0 km/h (0 Bft)
07.06.2023 06:45 13,7 C 4 % 1017,1 hPa 0,0 l/m 0,0 km/h (0 Bft) N-NO 16 -27,6 C 13,7 C 0,0 km/h (0 Bft)
07.06.2023 06:40 13,7 C 1 % 1017,1 hPa 0,0 l/m 0,0 km/h (0 Bft) N-NO 16 -41,5 C 13,7 C 0,0 km/h (0 Bft)
07.06.2023 06:35 13,7 C 1 % 1017,1 hPa 0,0 l/m 0,0 km/h (0 Bft) N-NO 16 -41,5 C 13,7 C 0,0 km/h (0 Bft)
07.06.2023 06:30 13,8 C 1 % 1017,1 hPa 0,0 l/m 0,0 km/h (0 Bft) N-NO 16 -41,4 C 13,8 C 0,0 km/h (0 Bft)
07.06.2023 06:25 13,8 C 1 % 1017,1 hPa 0,0 l/m 0,0 km/h (0 Bft) N-NO 16 -41,4 C 13,8 C 0,0 km/h (0 Bft)
07.06.2023 06:20 13,7 C 1 % 1017,1 hPa 0,0 l/m 0,0 km/h (0 Bft) N-NO 16 -41,5 C 13,7 C 0,0 km/h (0 Bft)
07.06.2023 06:15 13,6 C 1 % 1017,1 hPa 0,0 l/m 0,0 km/h (0 Bft) N-NO 16 -41,5 C 13,6 C 0,0 km/h (0 Bft)
07.06.2023 06:10 13,5 C 1 % 1017,1 hPa 0,0 l/m 0,0 km/h (0 Bft) N-NO 16 -41,6 C 13,5 C 0,0 km/h (0 Bft)
07.06.2023 06:05 13,4 C 1 % 1017,0 hPa 0,0 l/m 0,0 km/h (0 Bft) N-NO 16 -41,6 C 13,4 C 0,0 km/h (0 Bft)
07.06.2023 06:00 13,4 C 1 % 1017,1 hPa 0,0 l/m 0,0 km/h (0 Bft) N-NO 16 -41,6 C 13,4 C 0,0 km/h (0 Bft)
07.06.2023 05:55 13,3 C 1 % 1017,2 hPa 0,0 l/m 0,0 km/h (0 Bft) N-NO 16 -41,7 C 13,3 C 0,0 km/h (0 Bft)
07.06.2023 05:50 13,3 C 2 % 1017,1 hPa 0,0 l/m 0,0 km/h (0 Bft) N-NO 16 -35,0 C 13,3 C 0,0 km/h (0 Bft)
07.06.2023 05:45 13,3 C 3 % 1017,1 hPa 0,0 l/m 0,0 km/h (0 Bft) N-NO 16 -30,9 C 13,3 C 0,0 km/h (0 Bft)
07.06.2023 05:40 13,2 C 6 % 1017,0 hPa 0,0 l/m 0,0 km/h (0 Bft) N-NO 16 -23,5 C 13,2 C 0,0 km/h (0 Bft)
07.06.2023 05:35 13,2 C 9 % 1017,1 hPa 0,0 l/m 0,0 km/h (0 Bft) N-NO 16 -18,9 C 13,2 C 0,0 km/h (0 Bft)
07.06.2023 05:30 13,2 C 10 % 1017,1 hPa 0,0 l/m 0,0 km/h (0 Bft) N-NO 16 -17,7 C 13,2 C 0,0 km/h (0 Bft)
07.06.2023 05:25 13,2 C 11 % 1017,1 hPa 0,0 l/m 0,0 km/h (0 Bft) N-NO 16 -16,6 C 13,2 C 0,0 km/h (0 Bft)
07.06.2023 05:20 13,2 C 13 % 1017,1 hPa 0,0 l/m 0,0 km/h (0 Bft) N-NO 16 -14,6 C 13,2 C 0,0 km/h (0 Bft)
07.06.2023 05:15 13,2 C 14 % 1017,0 hPa 0,0 l/m 0,0 km/h (0 Bft) N-NO 16 -13,7 C 13,2 C 0,0 km/h (0 Bft)
07.06.2023 05:10 13,2 C 15 % 1017,0 hPa 0,0 l/m 0,0 km/h (0 Bft) N-NO 16 -12,8 C 13,2 C 0,0 km/h (0 Bft)
07.06.2023 05:05 13,2 C 16 % 1016,9 hPa 0,0 l/m 0,0 km/h (0 Bft) N-NO 16 -12,0 C 13,2 C 0,0 km/h (0 Bft)
07.06.2023 05:00 13,2 C 16 % 1017,0 hPa 0,0 l/m 0,0 km/h (0 Bft) N-NO 16 -12,0 C 13,2 C 0,0 km/h (0 Bft)
07.06.2023 04:55 13,2 C 15 % 1016,9 hPa 0,0 l/m 0,0 km/h (0 Bft) N-NO 16 -12,8 C 13,2 C 0,0 km/h (0 Bft)
07.06.2023 04:50 13,3 C 15 % 1016,9 hPa 0,0 l/m 0,0 km/h (0 Bft) N-NO 16 -12,8 C 13,3 C 0,0 km/h (0 Bft)
07.06.2023 04:45 13,3 C 15 % 1016,9 hPa 0,0 l/m 0,0 km/h (0 Bft) N-NO 16 -12,8 C 13,3 C 0,0 km/h (0 Bft)
07.06.2023 04:40 13,3 C 13 % 1016,9 hPa 0,0 l/m 0,0 km/h (0 Bft) N-NO 16 -14,5 C 13,3 C 0,0 km/h (0 Bft)
07.06.2023 04:35 13,3 C 12 % 1016,9 hPa 0,0 l/m 0,0 km/h (0 Bft) N-NO 16 -15,5 C 13,3 C 0,0 km/h (0 Bft)
07.06.2023 04:30 13,3 C 13 % 1016,9 hPa 0,0 l/m 0,0 km/h (0 Bft) N-NO 16 -14,5 C 13,3 C 0,0 km/h (0 Bft)
07.06.2023 04:25 13,3 C 13 % 1016,8 hPa 0,0 l/m 0,0 km/h (0 Bft) N-NO 16 -14,5 C 13,3 C 0,0 km/h (0 Bft)
07.06.2023 04:20 13,3 C 15 % 1016,9 hPa 0,0 l/m 0,0 km/h (0 Bft) N-NO 16 -12,8 C 13,3 C 0,0 km/h (0 Bft)
07.06.2023 04:15 13,3 C 16 % 1016,9 hPa 0,0 l/m 0,0 km/h (0 Bft) N-NO 16 -12,0 C 13,3 C 0,0 km/h (0 Bft)
07.06.2023 04:10 13,3 C 18 % 1016,9 hPa 0,0 l/m 0,0 km/h (0 Bft) N-NO 16 -10,5 C 13,3 C 0,0 km/h (0 Bft)
07.06.2023 04:05 13,3 C 19 % 1017,0 hPa 0,0 l/m 0,0 km/h (0 Bft) N-NO 16 -9,8 C 13,3 C 0,0 km/h (0 Bft)
07.06.2023 04:00 13,2 C 21 % 1017,0 hPa 0,0 l/m 0,0 km/h (0 Bft) N-NO 16 -8,6 C 13,2 C 0,0 km/h (0 Bft)
07.06.2023 03:55 13,3 C 21 % 1017,0 hPa 0,0 l/m 0,0 km/h (0 Bft) N-NO 16 -8,5 C 13,3 C 0,0 km/h (0 Bft)
07.06.2023 03:50 13,3 C 23 % 1017,0 hPa 0,0 l/m 0,0 km/h (0 Bft) N-NO 16 -7,4 C 13,3 C 0,0 km/h (0 Bft)
07.06.2023 03:45 13,3 C 24 % 1017,0 hPa 0,0 l/m 0,0 km/h (0 Bft) N-NO 16 -6,8 C 13,3 C 0,0 km/h (0 Bft)
07.06.2023 03:40 13,3 C 24 % 1017,1 hPa 0,0 l/m 0,0 km/h (0 Bft) N-NO 16 -6,8 C 13,3 C 0,0 km/h (0 Bft)
07.06.2023 03:35 13,3 C 25 % 1017,1 hPa 0,0 l/m 0,0 km/h (0 Bft) N-NO 16 -6,3 C 13,3 C 0,0 km/h (0 Bft)
07.06.2023 03:30 13,3 C 25 % 1017,1 hPa 0,0 l/m 0,0 km/h (0 Bft) N-NO 16 -6,3 C 13,3 C 0,0 km/h (0 Bft)
07.06.2023 03:25 13,3 C 24 % 1017,1 hPa 0,0 l/m 0,0 km/h (0 Bft) N-NO 16 -6,8 C 13,3 C 0,0 km/h (0 Bft)
07.06.2023 03:20 13,3 C 24 % 1017,1 hPa 0,0 l/m 0,0 km/h (0 Bft) N-NO 16 -6,8 C 13,3 C 0,0 km/h (0 Bft)
07.06.2023 03:15 13,3 C 24 % 1017,1 hPa 0,0 l/m 0,0 km/h (0 Bft) N-NO 16 -6,8 C 13,3 C 0,0 km/h (0 Bft)
07.06.2023 03:10 13,4 C 24 % 1017,2 hPa 0,0 l/m 0,0 km/h (0 Bft) N-NO 16 -6,7 C 13,4 C 0,0 km/h (0 Bft)
07.06.2023 03:05 13,4 C 24 % 1017,2 hPa 0,0 l/m 0,0 km/h (0 Bft) N-NO 16 -6,7 C 13,4 C 0,0 km/h (0 Bft)
07.06.2023 03:00 13,4 C 21 % 1017,1 hPa 0,0 l/m 0,0 km/h (0 Bft) N-NO 16 -8,5 C 13,4 C 0,0 km/h (0 Bft)
07.06.2023 02:55 13,4 C 15 % 1017,2 hPa 0,0 l/m 0,0 km/h (0 Bft) N-NO 16 -12,7 C 13,4 C 0,0 km/h (0 Bft)
07.06.2023 02:50 13,4 C 9 % 1017,1 hPa 0,0 l/m 0,0 km/h (0 Bft) N-NO 16 -18,8 C 13,4 C 0,0 km/h (0 Bft)
07.06.2023 02:45 13,3 C 5 % 1017,1 hPa 0,0 l/m 0,0 km/h (0 Bft) N-NO 15 -25,5 C 13,3 C 0,0 km/h (0 Bft)
07.06.2023 02:40 13,3 C 5 % 1017,1 hPa 0,0 l/m 0,0 km/h (0 Bft) N-NO 15 -25,5 C 13,3 C 0,0 km/h (0 Bft)
07.06.2023 02:35 13,2 C 9 % 1017,1 hPa 0,0 l/m 0,0 km/h (0 Bft) N-NO 15 -18,9 C 13,2 C 0,0 km/h (0 Bft)
07.06.2023 02:30 13,1 C 15 % 1017,1 hPa 0,0 l/m 0,1 km/h (0 Bft) N-NO 15 -12,9 C 13,1 C 3,2 km/h (1 Bft)
07.06.2023 02:25 13,0 C 19 % 1017,1 hPa 0,0 l/m 0,0 km/h (0 Bft) N-NO 13 -10,1 C 13,0 C 0,0 km/h (0 Bft)
07.06.2023 02:20 13,0 C 20 % 1017,2 hPa 0,0 l/m 0,0 km/h (0 Bft) N-NO 13 -9,4 C 13,0 C 0,0 km/h (0 Bft)
07.06.2023 02:15 13,0 C 21 % 1017,1 hPa 0,0 l/m 0,0 km/h (0 Bft) N-NO 13 -8,8 C 13,0 C 0,0 km/h (0 Bft)
07.06.2023 02:10 13,0 C 23 % 1017,1 hPa 0,0 l/m 0,0 km/h (0 Bft) N-NO 13 -7,6 C 13,0 C 0,0 km/h (0 Bft)
07.06.2023 02:05 13,1 C 25 % 1017,1 hPa 0,0 l/m 0,0 km/h (0 Bft) N-NO 13 -6,5 C 13,1 C 0,0 km/h (0 Bft)
07.06.2023 02:00 13,1 C 27 % 1017,1 hPa 0,0 l/m 0,0 km/h (0 Bft) N-NO 13 -5,5 C 13,1 C 0,0 km/h (0 Bft)
07.06.2023 01:55 13,1 C 30 % 1017,1 hPa 0,0 l/m 0,0 km/h (0 Bft) N-NO 13 -4,1 C 13,1 C 0,0 km/h (0 Bft)
07.06.2023 01:50 13,1 C 33 % 1017,1 hPa 0,0 l/m 0,0 km/h (0 Bft) N-NO 13 -2,8 C 13,1 C 0,0 km/h (0 Bft)
07.06.2023 01:45 13,1 C 36 % 1017,1 hPa 0,0 l/m 0,0 km/h (0 Bft) N-NO 13 -1,6 C 13,1 C 0,0 km/h (0 Bft)
07.06.2023 01:40 13,2 C 40 % 1017,2 hPa 0,0 l/m 0,0 km/h (0 Bft) N-NO 13 -0,1 C 13,2 C 0,0 km/h (0 Bft)
07.06.2023 01:35 13,2 C 41 % 1017,2 hPa 0,0 l/m 0,0 km/h (0 Bft) N-NO 13 0,2 C 13,2 C 0,0 km/h (0 Bft)
07.06.2023 01:30 13,2 C 42 % 1017,2 hPa 0,0 l/m 0,0 km/h (0 Bft) N-NO 13 0,6 C 13,2 C 0,0 km/h (0 Bft)
07.06.2023 01:25 13,3 C 42 % 1017,2 hPa 0,0 l/m 0,0 km/h (0 Bft) N-NO 13 0,7 C 13,3 C 0,0 km/h (0 Bft)
07.06.2023 01:20 13,3 C 42 % 1017,3 hPa 0,0 l/m 0,0 km/h (0 Bft) N-NO 13 0,7 C 13,3 C 0,0 km/h (0 Bft)
07.06.2023 01:15 13,4 C 42 % 1017,3 hPa 0,0 l/m 0,0 km/h (0 Bft) N-NO 13 0,8 C 13,4 C 0,0 km/h (0 Bft)
07.06.2023 01:10 13,4 C 43 % 1017,4 hPa 0,0 l/m 0,0 km/h (0 Bft) N-NO 13 1,1 C 13,4 C 0,0 km/h (0 Bft)
07.06.2023 01:05 13,4 C 43 % 1017,4 hPa 0,0 l/m 0,0 km/h (0 Bft) N-NO 13 1,1 C 13,4 C 0,0 km/h (0 Bft)
07.06.2023 01:00 13,4 C 43 % 1017,4 hPa 0,0 l/m 0,0 km/h (0 Bft) N-NO 13 1,1 C 13,4 C 0,0 km/h (0 Bft)
07.06.2023 00:55 13,4 C 43 % 1017,4 hPa 0,0 l/m 0,0 km/h (0 Bft) N-NO 13 1,1 C 13,4 C 0,0 km/h (0 Bft)
07.06.2023 00:50 13,5 C 44 % 1017,4 hPa 0,0 l/m 0,0 km/h (0 Bft) N-NO 13 1,5 C 13,5 C 0,0 km/h (0 Bft)
07.06.2023 00:45 13,4 C 43 % 1017,4 hPa 0,0 l/m 0,0 km/h (0 Bft) N-NO 13 1,1 C 13,4 C 0,0 km/h (0 Bft)
07.06.2023 00:40 13,5 C 41 % 1017,4 hPa 0,0 l/m 0,0 km/h (0 Bft) N-NO 13 0,5 C 13,5 C 0,0 km/h (0 Bft)
07.06.2023 00:35 13,5 C 43 % 1017,4 hPa 0,0 l/m 0,0 km/h (0 Bft) N-NO 13 1,2 C 13,5 C 0,0 km/h (0 Bft)
07.06.2023 00:30 13,5 C 45 % 1017,4 hPa 0,0 l/m 0,0 km/h (0 Bft) N-NO 13 1,8 C 13,5 C 0,0 km/h (0 Bft)
07.06.2023 00:25 13,6 C 47 % 1017,5 hPa 0,0 l/m 0,0 km/h (0 Bft) N-NO 14 2,5 C 13,6 C 0,0 km/h (0 Bft)
07.06.2023 00:20 13,6 C 50 % 1017,5 hPa 0,0 l/m 0,0 km/h (0 Bft) N 11 3,4 C 13,6 C 0,0 km/h (0 Bft)
07.06.2023 00:15 13,7 C 54 % 1017,5 hPa 0,0 l/m 0,0 km/h (0 Bft) N-NO 12 4,6 C 13,7 C 0,0 km/h (0 Bft)
07.06.2023 00:10 13,7 C 55 % 1017,5 hPa 0,0 l/m 0,0 km/h (0 Bft) N-NO 12 4,8 C 13,7 C 0,0 km/h (0 Bft)
07.06.2023 00:05 13,7 C 56 % 1017,5 hPa 0,0 l/m 0,0 km/h (0 Bft) N-NO 12 5,1 C 13,7 C 0,0 km/h (0 Bft)
07.06.2023 00:00 13,7 C 54 % 1017,5 hPa 0,0 l/m 0,0 km/h (0 Bft) N-NO 12 4,6 C 13,7 C 0,0 km/h (0 Bft)
06.06.2023 23:55 13,7 C 56 % 1017,5 hPa 0,0 l/m 0,0 km/h (0 Bft) N-NO 12 5,1 C 13,7 C 0,0 km/h (0 Bft)
06.06.2023 23:50 13,8 C 58 % 1017,5 hPa 0,0 l/m 0,0 km/h (0 Bft) N-NO 12 5,7 C 13,8 C 0,0 km/h (0 Bft)
06.06.2023 23:45 13,8 C 60 % 1017,5 hPa 0,0 l/m 0,0 km/h (0 Bft) N-NO 12 6,2 C 13,8 C 0,0 km/h (0 Bft)
06.06.2023 23:40 13,9 C 61 % 1017,4 hPa 0,0 l/m 0,0 km/h (0 Bft) N-NO 12 6,5 C 13,9 C 0,0 km/h (0 Bft)
06.06.2023 23:35 13,9 C 63 % 1017,4 hPa 0,0 l/m 0,0 km/h (0 Bft) N-NO 12 7,0 C 13,9 C 0,0 km/h (0 Bft)
06.06.2023 23:30 14,1 C 63 % 1017,5 hPa 0,0 l/m 0,0 km/h (0 Bft) N-NO 12 7,2 C 14,1 C 0,0 km/h (0 Bft)
06.06.2023 23:25 14,1 C 64 % 1017,5 hPa 0,0 l/m 0,0 km/h (0 Bft) N-NO 12 7,4 C 14,1 C 0,0 km/h (0 Bft)
06.06.2023 23:20 14,2 C 65 % 1017,6 hPa 0,0 l/m 0,0 km/h (0 Bft) N-NO 12 7,7 C 14,2 C 0,0 km/h (0 Bft)
06.06.2023 23:15 14,2 C 66 % 1017,6 hPa 0,0 l/m 0,0 km/h (0 Bft) N-NO 12 7,9 C 14,2 C 0,0 km/h (0 Bft)
06.06.2023 23:10 14,2 C 66 % 1017,6 hPa 0,0 l/m 0,0 km/h (0 Bft) N-NO 12 7,9 C 14,2 C 0,0 km/h (0 Bft)
06.06.2023 23:05 14,3 C 67 % 1017,6 hPa 0,0 l/m 0,0 km/h (0 Bft) N-NO 12 8,3 C 14,3 C 0,0 km/h (0 Bft)
06.06.2023 23:00 14,4 C 68 % 1017,6 hPa 0,0 l/m 0,0 km/h (0 Bft) N-NO 12 8,6 C 14,4 C 0,0 km/h (0 Bft)
06.06.2023 22:55 14,5 C 70 % 1017,7 hPa 0,0 l/m 0,0 km/h (0 Bft) N-NO 12 9,1 C 14,5 C 0,0 km/h (0 Bft)
06.06.2023 22:50 14,6 C 71 % 1017,6 hPa 0,0 l/m 0,0 km/h (0 Bft) N-NO 12 9,4 C 14,6 C 0,0 km/h (0 Bft)
06.06.2023 22:45 14,6 C 71 % 1017,6 hPa 0,0 l/m 0,0 km/h (0 Bft) N-NO 12 9,4 C 14,6 C 0,0 km/h (0 Bft)
06.06.2023 22:40 14,7 C 72 % 1017,7 hPa 0,0 l/m 0,0 km/h (0 Bft) N-NO 12 9,7 C 14,7 C 0,0 km/h (0 Bft)
06.06.2023 22:35 14,7 C 73 % 1017,6 hPa 0,0 l/m 0,0 km/h (0 Bft) N-NO 12 9,9 C 14,7 C 0,0 km/h (0 Bft)
06.06.2023 22:30 14,7 C 73 % 1017,6 hPa 0,0 l/m 0,0 km/h (0 Bft) N-NO 12 9,9 C 14,7 C 0,0 km/h (0 Bft)
06.06.2023 22:25 14,8 C 74 % 1017,6 hPa 0,0 l/m 0,0 km/h (0 Bft) N-NO 12 10,2 C 14,8 C 0,0 km/h (0 Bft)
06.06.2023 22:20 14,9 C 74 % 1017,7 hPa 0,0 l/m 0,0 km/h (0 Bft) N-NO 12 10,3 C 14,9 C 0,0 km/h (0 Bft)
06.06.2023 22:15 14,9 C 75 % 1017,6 hPa 0,0 l/m 0,0 km/h (0 Bft) N-NO 12 10,5 C 14,9 C 0,0 km/h (0 Bft)
06.06.2023 22:10 15,0 C 75 % 1017,6 hPa 0,0 l/m 0,0 km/h (0 Bft) N-NO 12 10,6 C 15,0 C 0,0 km/h (0 Bft)
06.06.2023 22:05 15,1 C 75 % 1017,6 hPa 0,0 l/m 0,0 km/h (0 Bft) N-NO 12 10,7 C 15,1 C 0,0 km/h (0 Bft)
06.06.2023 22:00 15,1 C 76 % 1017,6 hPa 0,0 l/m 0,0 km/h (0 Bft) N-NO 12 10,9 C 15,1 C 0,0 km/h (0 Bft)
06.06.2023 21:55 15,1 C 76 % 1017,4 hPa 0,0 l/m 0,0 km/h (0 Bft) N-NO 12 10,9 C 15,1 C 0,0 km/h (0 Bft)
06.06.2023 21:50 15,2 C 76 % 1017,5 hPa 0,0 l/m 0,0 km/h (0 Bft) N 10 11,0 C 15,2 C 0,0 km/h (0 Bft)
06.06.2023 21:45 15,2 C 76 % 1017,4 hPa 0,0 l/m 0,0 km/h (0 Bft) N 9 11,0 C 15,2 C 0,0 km/h (0 Bft)
06.06.2023 21:40 15,2 C 76 % 1017,4 hPa 0,0 l/m 0,1 km/h (0 Bft) N 9 11,0 C 15,2 C 3,2 km/h (1 Bft)
06.06.2023 21:35 15,2 C 76 % 1017,4 hPa 0,0 l/m 0,2 km/h (0 Bft) N 9 11,0 C 15,2 C 4,8 km/h (1 Bft)
06.06.2023 21:30 15,3 C 76 % 1017,4 hPa 0,0 l/m 0,0 km/h (0 Bft) N 11 11,1 C 15,3 C 0,0 km/h (0 Bft)
06.06.2023 21:25 15,3 C 77 % 1017,4 hPa 0,0 l/m 0,0 km/h (0 Bft) N-NO 12 11,3 C 15,3 C 1,6 km/h (1 Bft)
06.06.2023 21:20 15,4 C 77 % 1017,3 hPa 0,0 l/m 0,0 km/h (0 Bft) N 9 11,4 C 15,4 C 0,0 km/h (0 Bft)
06.06.2023 21:15 15,4 C 77 % 1017,3 hPa 0,0 l/m 0,0 km/h (0 Bft) N 5 11,4 C 15,4 C 1,6 km/h (1 Bft)
06.06.2023 21:10 15,4 C 77 % 1017,2 hPa 0,0 l/m 0,0 km/h (0 Bft) N 355 11,4 C 15,4 C 0,0 km/h (0 Bft)
06.06.2023 21:05 15,6 C 77 % 1017,2 hPa 0,0 l/m 0,0 km/h (0 Bft) N 355 11,6 C 15,6 C 0,0 km/h (0 Bft)
06.06.2023 21:00 15,7 C 78 % 1017,1 hPa 0,0 l/m 0,0 km/h (0 Bft) N 355 11,9 C 15,7 C 0,0 km/h (0 Bft)
_ Min-Zeit 02:05 05:55 18:30 - 21:00 - - 05:55 02:10 21:00
Minimum _ 13,0 C 1 % 1014,8 hPa - 0,0 km/h (0 Bft) - - -41,7 C 13,0 C 0,0 km/h (0 Bft)
_ Max-Zeit 15:15 21:00 22:20 16:15 15:30 - - 15:50 15:15 15:25
Maximum _ 24,7 C 78 % 1017,7 hPa 0,4 l/m 5,5 km/h
O (1 Bft)
- - 15,6 C 24,7 C 19,3 km/h
NO (3 Bft)
Durchschnitt _ 17,4 C 54 % 1016,7 hPa #0,8 l/m 0,4 km/h (0 Bft) O-SO - 4,9 C 17,4 C 2,9 km/h (1 Bft)